createdAt,value
2023-04-03T00:00:38.201Z,2.30
2023-04-03T00:01:37.955Z,2.40
2023-04-03T00:02:38.090Z,2.00
2023-04-03T00:03:38.974Z,2.40
2023-04-03T00:04:37.963Z,2.20
2023-04-03T00:05:37.939Z,2.10
2023-04-03T00:06:37.914Z,1.90
2023-04-03T00:07:37.910Z,2.20
2023-04-03T00:08:37.919Z,2.10
2023-04-03T00:09:37.908Z,1.90
2023-04-03T00:10:38.327Z,2.00
2023-04-03T00:11:37.880Z,2.10
2023-04-03T00:12:37.893Z,2.20
2023-04-03T00:13:37.879Z,2.10
2023-04-03T00:14:37.860Z,2.30
2023-04-03T00:15:37.892Z,2.00
2023-04-03T00:16:37.923Z,2.10
2023-04-03T00:17:37.879Z,2.30
2023-04-03T00:18:37.872Z,2.10
2023-04-03T00:19:37.833Z,2.20
2023-04-03T00:20:38.215Z,2.00
2023-04-03T00:21:37.908Z,2.10
2023-04-03T00:22:37.824Z,2.40
2023-04-03T00:23:37.825Z,2.30
2023-04-03T00:24:37.825Z,2.30
2023-04-03T00:25:37.796Z,3.10
2023-04-03T00:26:37.826Z,2.30
2023-04-03T00:27:37.810Z,2.90
2023-04-03T00:28:37.818Z,2.50
2023-04-03T00:29:37.767Z,3.20
2023-04-03T00:30:38.122Z,3.00
2023-04-03T00:32:11.442Z,2.70
2023-04-03T00:32:37.853Z,2.70
2023-04-03T00:33:37.806Z,2.40
2023-04-03T00:34:37.790Z,2.70
2023-04-03T00:35:37.808Z,3.40
2023-04-03T00:37:11.249Z,2.60
2023-04-03T00:37:37.779Z,3.40
2023-04-03T00:38:37.800Z,2.80
2023-04-03T00:40:11.268Z,2.20
2023-04-03T00:40:38.224Z,3.10
2023-04-03T00:41:37.762Z,4.20
2023-04-03T00:42:37.721Z,4.10
2023-04-03T00:44:11.133Z,4.00
2023-04-03T00:44:38.601Z,4.10
2023-04-03T00:45:37.754Z,3.80
2023-04-03T00:46:37.750Z,2.30
2023-04-03T00:47:37.724Z,6.10
2023-04-03T00:48:37.726Z,3.00
2023-04-03T00:49:37.656Z,2.40
2023-04-03T00:50:37.874Z,4.90
2023-04-03T00:51:37.737Z,3.00
2023-04-03T00:52:37.613Z,3.00
2023-04-03T00:53:37.620Z,3.90
2023-04-03T00:54:37.645Z,3.40
2023-04-03T00:55:37.603Z,3.10
2023-04-03T00:56:37.582Z,4.40
2023-04-03T00:57:37.587Z,3.90
2023-04-03T00:58:37.580Z,3.50
2023-04-03T00:59:37.569Z,2.90
2023-04-03T01:00:37.863Z,3.20
2023-04-03T01:01:37.628Z,6.70
2023-04-03T01:02:37.569Z,6.50
2023-04-03T01:03:37.571Z,5.60
2023-04-03T01:04:37.773Z,7.20
2023-04-03T01:05:37.544Z,31.70
2023-04-03T01:06:37.542Z,47.80
2023-04-03T01:07:37.511Z,34.60
2023-04-03T01:08:37.517Z,12.40
2023-04-03T01:09:37.502Z,33.60
2023-04-03T01:10:37.738Z,42.90
2023-04-03T01:11:37.512Z,30.00
2023-04-03T01:12:37.484Z,37.70
2023-04-03T01:13:37.487Z,26.80
2023-04-03T01:14:37.499Z,34.20
2023-04-03T01:15:37.526Z,10.90
2023-04-03T01:16:37.487Z,18.80
2023-04-03T01:17:37.487Z,24.00
2023-04-03T01:18:38.480Z,37.80
2023-04-03T01:19:37.478Z,36.20
2023-04-03T01:20:38.137Z,16.60
2023-04-03T01:21:37.453Z,19.30
2023-04-03T01:22:37.434Z,30.80
2023-04-03T01:23:37.462Z,27.70
2023-04-03T01:24:37.429Z,30.40
2023-04-03T01:25:37.435Z,26.40
2023-04-03T01:26:37.418Z,24.20
2023-04-03T01:27:37.396Z,23.70
2023-04-03T01:28:37.409Z,6.00
2023-04-03T01:29:37.381Z,5.90
2023-04-03T01:30:37.774Z,4.60
2023-04-03T01:31:37.431Z,6.90
2023-04-03T01:32:37.443Z,3.60
2023-04-03T01:33:37.451Z,5.50
2023-04-03T01:34:37.366Z,3.80
2023-04-03T01:35:37.454Z,4.40
2023-04-03T01:36:37.363Z,4.80
2023-04-03T01:37:37.367Z,4.60
2023-04-03T01:38:37.351Z,18.00
2023-04-03T01:39:37.350Z,5.90
2023-04-03T01:40:37.460Z,23.70
2023-04-03T01:41:37.302Z,16.90
2023-04-03T01:42:37.323Z,14.90
2023-04-03T01:43:37.343Z,19.00
2023-04-03T01:44:37.341Z,19.10
2023-04-03T01:45:37.294Z,14.80
2023-04-03T01:46:37.276Z,12.70
2023-04-03T01:47:37.289Z,14.10
2023-04-03T01:48:37.303Z,13.20
2023-04-03T01:49:37.268Z,12.90
2023-04-03T01:50:37.556Z,18.10
2023-04-03T01:51:37.254Z,20.40
2023-04-03T01:52:37.252Z,20.70
2023-04-03T01:53:37.236Z,21.80
2023-04-03T01:54:37.247Z,16.30
2023-04-03T01:55:37.315Z,15.80
2023-04-03T01:56:37.236Z,14.80
2023-04-03T01:57:37.198Z,19.40
2023-04-03T01:58:37.225Z,17.40
2023-04-03T01:59:37.207Z,14.30
2023-04-03T02:00:37.564Z,16.30
2023-04-03T02:01:37.542Z,20.50
2023-04-03T02:02:37.237Z,15.70
2023-04-03T02:03:37.303Z,16.40
2023-04-03T02:04:37.213Z,14.00
2023-04-03T02:05:37.187Z,11.20
2023-04-03T02:06:37.144Z,8.10
2023-04-03T02:07:37.187Z,15.00
2023-04-03T02:08:37.155Z,12.00
2023-04-03T02:09:37.170Z,13.90
2023-04-03T02:10:37.475Z,13.10
2023-04-03T02:11:37.130Z,13.20
2023-04-03T02:12:37.132Z,16.40
2023-04-03T02:13:37.212Z,13.00
2023-04-03T02:14:37.095Z,13.80
2023-04-03T02:15:37.157Z,15.50
2023-04-03T02:16:37.164Z,13.60
2023-04-03T02:17:37.131Z,19.30
2023-04-03T02:18:37.093Z,17.30
2023-04-03T02:19:37.195Z,16.60
2023-04-03T02:20:37.237Z,20.70
2023-04-03T02:21:37.055Z,20.60
2023-04-03T02:22:37.076Z,18.90
2023-04-03T02:23:37.166Z,15.40
2023-04-03T02:24:37.074Z,18.50
2023-04-03T02:25:38.710Z,20.70
2023-04-03T02:26:38.017Z,21.30
2023-04-03T02:27:37.042Z,20.30
2023-04-03T02:28:37.038Z,19.10
2023-04-03T02:29:36.997Z,18.00
2023-04-03T02:30:37.265Z,18.70
2023-04-03T02:31:37.050Z,17.30
2023-04-03T02:32:37.085Z,12.00
2023-04-03T02:33:37.036Z,17.10
2023-04-03T02:34:37.033Z,11.40
2023-04-03T02:35:37.066Z,8.30
2023-04-03T02:36:36.993Z,8.80
2023-04-03T02:37:37.046Z,12.70
2023-04-03T02:38:37.113Z,10.40
2023-04-03T02:39:37.038Z,7.90
2023-04-03T02:40:37.025Z,7.70
2023-04-03T02:41:36.965Z,6.20
2023-04-03T02:42:36.934Z,7.40
2023-04-03T02:43:36.919Z,10.90
2023-04-03T02:44:36.941Z,8.40
2023-04-03T02:45:36.900Z,11.10
2023-04-03T02:46:36.958Z,10.00
2023-04-03T02:47:36.965Z,10.80
2023-04-03T02:48:36.898Z,7.80
2023-04-03T02:49:36.898Z,12.80
2023-04-03T02:50:37.004Z,14.20
2023-04-03T02:51:36.905Z,14.80
2023-04-03T02:52:36.856Z,13.30
2023-04-03T02:53:36.848Z,8.90
2023-04-03T02:54:36.887Z,12.90
2023-04-03T02:55:36.842Z,15.50
2023-04-03T02:56:36.836Z,15.10
2023-04-03T02:57:36.873Z,11.90
2023-04-03T02:58:36.830Z,14.00
2023-04-03T02:59:36.894Z,12.40
2023-04-03T03:00:37.033Z,14.60
2023-04-03T03:01:36.879Z,14.50
2023-04-03T03:02:36.849Z,13.70
2023-04-03T03:03:36.821Z,14.30
2023-04-03T03:04:36.849Z,11.40
2023-04-03T03:05:36.782Z,11.00
2023-04-03T03:06:36.803Z,10.30
2023-04-03T03:07:36.799Z,12.30
2023-04-03T03:08:36.769Z,10.60
2023-04-03T03:09:36.762Z,12.00
2023-04-03T03:10:36.986Z,16.80
2023-04-03T03:11:36.767Z,13.90
2023-04-03T03:12:36.779Z,11.20
2023-04-03T03:13:36.742Z,10.40
2023-04-03T03:14:36.723Z,11.90
2023-04-03T03:15:36.753Z,14.60
2023-04-03T03:16:36.729Z,17.20
2023-04-03T03:17:36.793Z,15.40
2023-04-03T03:18:36.693Z,21.60
2023-04-03T03:19:36.708Z,19.50
2023-04-03T03:20:36.844Z,15.60
2023-04-03T03:21:36.730Z,16.60
2023-04-03T03:22:36.698Z,15.10
2023-04-03T03:23:36.700Z,13.70
2023-04-03T03:24:36.671Z,15.30
2023-04-03T03:25:36.826Z,16.80
2023-04-03T03:26:36.999Z,16.10
2023-04-03T03:27:36.658Z,19.90
2023-04-03T03:28:36.625Z,14.80
2023-04-03T03:29:36.661Z,14.80
2023-04-03T03:30:36.690Z,14.40
2023-04-03T03:31:37.798Z,17.00
2023-04-03T03:32:36.614Z,15.80
2023-04-03T03:33:37.815Z,18.70
2023-04-03T03:34:36.619Z,15.40
2023-04-03T03:35:36.861Z,17.80
2023-04-03T03:36:36.622Z,17.20
2023-04-03T03:37:36.598Z,17.00
2023-04-03T03:38:36.640Z,17.50
2023-04-03T03:39:37.739Z,17.00
2023-04-03T03:40:36.587Z,16.50
2023-04-03T03:41:36.594Z,19.80
2023-04-03T03:42:36.573Z,14.90
2023-04-03T03:43:36.534Z,13.80
2023-04-03T03:44:36.584Z,17.60
2023-04-03T03:45:36.732Z,19.00
2023-04-03T03:46:36.576Z,17.90
2023-04-03T03:47:36.539Z,18.90
2023-04-03T03:48:36.526Z,21.20
2023-04-03T03:49:36.578Z,20.30
2023-04-03T03:50:36.517Z,16.70
2023-04-03T03:51:36.482Z,18.60
2023-04-03T03:52:36.518Z,19.20
2023-04-03T03:53:36.471Z,19.00
2023-04-03T03:54:36.483Z,13.40
2023-04-03T03:55:36.539Z,15.80
2023-04-03T03:56:36.533Z,20.60
2023-04-03T03:57:36.459Z,10.90
2023-04-03T03:58:36.448Z,12.30
2023-04-03T03:59:36.478Z,13.20
2023-04-03T04:00:36.449Z,13.20
2023-04-03T04:01:37.437Z,12.50
2023-04-03T04:02:36.690Z,12.30
2023-04-03T04:03:36.517Z,10.70
2023-04-03T04:04:36.455Z,12.90
2023-04-03T04:05:36.732Z,10.70
2023-04-03T04:06:36.406Z,17.40
2023-04-03T04:07:36.421Z,12.40
2023-04-03T04:08:36.391Z,12.30
2023-04-03T04:09:36.398Z,26.00
2023-04-03T04:10:36.392Z,25.60
2023-04-03T04:11:36.381Z,26.30
2023-04-03T04:12:36.380Z,10.90
2023-04-03T04:13:36.420Z,20.80
2023-04-03T04:14:36.354Z,25.70
2023-04-03T04:15:36.683Z,22.00
2023-04-03T04:16:36.402Z,23.10
2023-04-03T04:17:37.367Z,23.80
2023-04-03T04:18:36.329Z,10.30
2023-04-03T04:19:36.356Z,15.30
2023-04-03T04:20:36.334Z,14.60
2023-04-03T04:21:36.335Z,18.80
2023-04-03T04:22:36.310Z,27.80
2023-04-03T04:23:36.323Z,16.80
2023-04-03T04:24:38.435Z,25.90
2023-04-03T04:25:36.534Z,20.10
2023-04-03T04:26:36.278Z,16.00
2023-04-03T04:27:36.288Z,24.10
2023-04-03T04:28:36.286Z,15.90
2023-04-03T04:29:36.249Z,14.80
2023-04-03T04:30:36.279Z,13.30
2023-04-03T04:31:36.265Z,13.20
2023-04-03T04:32:36.276Z,12.30
2023-04-03T04:33:36.269Z,15.10
2023-04-03T04:34:36.227Z,12.60
2023-04-03T04:35:36.567Z,12.80
2023-04-03T04:36:36.369Z,17.70
2023-04-03T04:37:36.221Z,10.60
2023-04-03T04:38:36.250Z,12.20
2023-04-03T04:39:36.230Z,10.70
2023-04-03T04:40:36.217Z,11.20
2023-04-03T04:41:36.240Z,10.90
2023-04-03T04:42:36.162Z,12.30
2023-04-03T04:43:36.180Z,10.40
2023-04-03T04:44:36.177Z,12.30
2023-04-03T04:45:36.471Z,10.80
2023-04-03T04:46:36.212Z,10.60
2023-04-03T04:47:36.185Z,13.90
2023-04-03T04:48:36.164Z,12.90
2023-04-03T04:49:36.135Z,11.40
2023-04-03T04:50:36.161Z,10.50
2023-04-03T04:51:48.365Z,10.40
2023-04-03T04:52:37.240Z,12.50
2023-04-03T04:53:36.137Z,11.30
2023-04-03T04:54:36.116Z,10.40
2023-04-03T04:55:36.271Z,10.20
2023-04-03T04:56:36.099Z,11.60
2023-04-03T04:57:36.129Z,10.80
2023-04-03T04:58:36.097Z,10.30
2023-04-03T04:59:36.128Z,10.80
2023-04-03T05:00:36.102Z,13.50
2023-04-03T05:01:36.112Z,13.50
2023-04-03T05:02:36.125Z,9.50
2023-04-03T05:03:36.092Z,11.60
2023-04-03T05:04:36.105Z,9.10
2023-04-03T05:05:36.335Z,8.60
2023-04-03T05:06:36.146Z,9.90
2023-04-03T05:07:36.027Z,9.70
2023-04-03T05:08:36.019Z,10.80
2023-04-03T05:09:36.009Z,13.00
2023-04-03T05:10:36.098Z,12.60
2023-04-03T05:11:36.032Z,9.40
2023-04-03T05:12:36.007Z,11.00
2023-04-03T05:13:36.031Z,11.20
2023-04-03T05:14:35.992Z,12.20
2023-04-03T05:15:36.217Z,11.90
2023-04-03T05:16:36.003Z,11.40
2023-04-03T05:17:36.001Z,14.20
2023-04-03T05:18:35.964Z,14.20
2023-04-03T05:19:35.950Z,20.80
2023-04-03T05:20:35.972Z,10.70
2023-04-03T05:21:35.920Z,17.80
2023-04-03T05:22:36.058Z,22.60
2023-04-03T05:23:42.532Z,24.40
2023-04-03T05:27:26.536Z,14.20
2023-04-03T05:28:17.623Z,10.20
2023-04-03T05:29:17.567Z,11.70
2023-04-03T05:30:17.571Z,10.40
2023-04-03T05:31:17.624Z,10.30
2023-04-03T05:32:17.650Z,8.70
2023-04-03T05:33:17.580Z,9.50
2023-04-03T05:34:17.538Z,11.90
2023-04-03T05:35:17.605Z,12.20
2023-04-03T05:36:17.558Z,11.60
2023-04-03T05:37:17.585Z,10.40
2023-04-03T05:38:17.596Z,7.80
2023-04-03T05:39:18.494Z,6.90
2023-04-03T05:40:18.721Z,6.10
2023-04-03T05:41:18.505Z,4.70
2023-04-03T05:42:17.494Z,4.70
2023-04-03T05:43:17.550Z,4.80
2023-04-03T05:44:17.507Z,5.20
2023-04-03T05:45:17.556Z,4.50
2023-04-03T05:46:17.518Z,3.70
2023-04-03T05:47:17.530Z,5.20
2023-04-03T05:48:17.553Z,4.60
2023-04-03T05:49:17.486Z,4.30
2023-04-03T05:50:17.519Z,3.70
2023-04-03T05:51:17.461Z,6.70
2023-04-03T05:52:17.449Z,4.30
2023-04-03T05:53:17.436Z,5.20
2023-04-03T05:54:17.488Z,3.80
2023-04-03T05:55:17.455Z,3.90
2023-04-03T05:56:17.409Z,3.70
2023-04-03T05:57:17.457Z,3.60
2023-04-03T05:58:17.409Z,3.40
2023-04-03T05:59:17.388Z,4.20
2023-04-03T06:00:17.417Z,3.70
2023-04-03T06:01:17.386Z,4.00
2023-04-03T06:02:17.398Z,3.90
2023-04-03T06:03:17.484Z,6.30
2023-04-03T06:04:17.556Z,3.00
2023-04-03T06:05:17.376Z,3.30
2023-04-03T06:06:17.379Z,3.20
2023-04-03T06:07:17.369Z,3.40
2023-04-03T06:08:17.344Z,3.00
2023-04-03T06:09:17.371Z,3.30
2023-04-03T06:10:17.310Z,3.90
2023-04-03T06:11:17.364Z,2.90
2023-04-03T06:12:17.304Z,2.90
2023-04-03T06:13:17.308Z,2.80
2023-04-03T06:14:17.335Z,2.90
2023-04-03T06:15:17.296Z,2.90
2023-04-03T06:16:17.304Z,2.70
2023-04-03T06:17:17.507Z,3.00
2023-04-03T06:18:17.278Z,2.70
2023-04-03T06:19:17.326Z,2.80
2023-04-03T06:20:17.260Z,2.90
2023-04-03T06:21:17.519Z,3.00
2023-04-03T06:22:17.274Z,2.70
2023-04-03T06:23:17.251Z,2.90
2023-04-03T06:24:17.302Z,3.20
2023-04-03T06:25:17.282Z,3.00
2023-04-03T06:26:17.271Z,3.20
2023-04-03T06:27:17.238Z,2.50
2023-04-03T06:28:17.202Z,3.10
2023-04-03T06:29:17.223Z,3.40
2023-04-03T06:30:17.896Z,3.20
2023-04-03T06:31:17.338Z,2.60
2023-04-03T06:32:17.202Z,3.50
2023-04-03T06:33:17.226Z,3.20
2023-04-03T06:34:17.260Z,3.70
2023-04-03T06:35:17.190Z,3.20
2023-04-03T06:36:17.190Z,2.80
2023-04-03T06:37:17.185Z,3.00
2023-04-03T06:38:17.159Z,3.30
2023-04-03T06:39:17.148Z,3.50
2023-04-03T06:40:17.364Z,3.60
2023-04-03T06:41:17.972Z,2.90
2023-04-03T06:42:17.118Z,3.00
2023-04-03T06:43:17.185Z,3.60
2023-04-03T06:44:17.147Z,3.60
2023-04-03T06:45:17.139Z,3.20
2023-04-03T06:46:18.159Z,4.20
2023-04-03T06:47:17.140Z,2.90
2023-04-03T06:48:17.108Z,3.60
2023-04-03T06:49:17.082Z,3.90
2023-04-03T06:50:17.106Z,3.50
2023-04-03T06:51:17.123Z,3.90
2023-04-03T06:52:17.090Z,3.80
2023-04-03T06:53:17.043Z,3.50
2023-04-03T06:54:17.095Z,3.40
2023-04-03T06:55:17.065Z,4.40
2023-04-03T06:56:17.061Z,5.80
2023-04-03T06:57:17.136Z,4.90
2023-04-03T06:58:17.047Z,4.80
2023-04-03T06:59:17.038Z,4.70
2023-04-03T07:00:17.056Z,5.00
2023-04-03T07:01:17.152Z,5.20
2023-04-03T07:02:17.032Z,4.00
2023-04-03T07:03:17.020Z,4.30
2023-04-03T07:04:17.025Z,4.60
2023-04-03T07:05:16.985Z,4.30
2023-04-03T07:06:16.984Z,5.30
2023-04-03T07:07:17.009Z,6.40
2023-04-03T07:08:16.984Z,6.50
2023-04-03T07:09:17.004Z,5.60
2023-04-03T07:10:17.008Z,6.20
2023-04-03T07:11:16.943Z,4.60
2023-04-03T07:12:16.969Z,4.30
2023-04-03T07:13:16.965Z,4.60
2023-04-03T07:14:16.956Z,4.90
2023-04-03T07:15:16.977Z,3.50
2023-04-03T07:16:16.995Z,3.50
2023-04-03T07:17:16.914Z,3.50
2023-04-03T07:18:16.896Z,3.50
2023-04-03T07:19:16.929Z,3.80
2023-04-03T07:20:16.914Z,3.60
2023-04-03T07:21:16.909Z,4.00
2023-04-03T07:22:16.896Z,3.50
2023-04-03T07:23:16.898Z,4.20
2023-04-03T07:24:17.002Z,3.80
2023-04-03T07:25:16.867Z,3.30
2023-04-03T07:26:16.877Z,3.50
2023-04-03T07:27:16.918Z,3.90
2023-04-03T07:28:16.847Z,2.90
2023-04-03T07:29:16.852Z,3.50
2023-04-03T07:30:16.837Z,3.30
2023-04-03T07:31:16.921Z,4.10
2023-04-03T07:32:16.886Z,2.90
2023-04-03T07:33:16.811Z,3.80
2023-04-03T07:34:16.826Z,3.30
2023-04-03T07:35:16.859Z,3.30
2023-04-03T07:36:16.842Z,3.10
2023-04-03T07:37:16.824Z,2.90
2023-04-03T07:38:16.799Z,2.80
2023-04-03T07:39:16.793Z,3.00
2023-04-03T07:40:18.102Z,4.70
2023-04-03T07:41:16.732Z,3.60
2023-04-03T07:42:16.808Z,3.30
2023-04-03T07:43:16.769Z,3.40
2023-04-03T07:44:16.783Z,3.20
2023-04-03T07:45:16.761Z,3.00
2023-04-03T07:46:16.787Z,3.10
2023-04-03T07:47:16.809Z,3.50
2023-04-03T07:48:16.720Z,3.10
2023-04-03T07:49:16.716Z,3.40
2023-04-03T07:50:16.735Z,2.90
2023-04-03T07:51:16.727Z,5.50
2023-04-03T07:52:16.723Z,3.00
2023-04-03T07:53:16.792Z,3.40
2023-04-03T07:54:16.696Z,3.40
2023-04-03T07:55:16.726Z,3.70
2023-04-03T07:56:16.711Z,3.60
2023-04-03T07:57:16.687Z,3.40
2023-04-03T07:58:16.650Z,3.20
2023-04-03T07:59:16.688Z,3.20
2023-04-03T08:00:16.724Z,4.30
2023-04-03T08:01:16.782Z,9.90
2023-04-03T08:02:16.708Z,4.40
2023-04-03T08:03:16.774Z,4.20
2023-04-03T08:04:16.760Z,6.40
2023-04-03T08:05:16.640Z,3.10
2023-04-03T08:06:18.573Z,3.40
2023-04-03T08:07:16.642Z,3.10
2023-04-03T08:08:17.709Z,3.30
2023-04-03T08:09:16.624Z,3.30
2023-04-03T08:10:16.629Z,3.20
2023-04-03T08:11:16.565Z,3.70
2023-04-03T08:12:16.609Z,2.60
2023-04-03T08:13:16.568Z,4.30
2023-04-03T08:14:16.633Z,4.60
2023-04-03T08:15:16.585Z,3.50
2023-04-03T08:16:16.584Z,3.50
2023-04-03T08:17:16.546Z,2.80
2023-04-03T08:18:16.547Z,2.30
2023-04-03T08:19:25.352Z,2.70
2023-04-03T08:20:18.498Z,2.90
2023-04-03T08:21:16.520Z,3.00
2023-04-03T08:22:16.484Z,2.80
2023-04-03T08:23:17.263Z,2.80
2023-04-03T08:24:17.478Z,2.50
2023-04-03T08:25:16.495Z,3.20
2023-04-03T08:26:16.457Z,3.60
2023-04-03T08:27:16.498Z,2.80
2023-04-03T08:28:16.497Z,2.60
2023-04-03T08:29:17.514Z,2.70
2023-04-03T08:30:16.440Z,2.90
2023-04-03T08:31:16.541Z,2.80
2023-04-03T08:32:16.433Z,2.70
2023-04-03T08:33:16.459Z,2.60
2023-04-03T08:34:16.458Z,2.50
2023-04-03T08:35:16.429Z,2.40
2023-04-03T08:36:16.492Z,2.20
2023-04-03T08:37:16.461Z,2.80
2023-04-03T08:38:16.398Z,3.20
2023-04-03T08:39:16.432Z,2.70
2023-04-03T08:40:16.389Z,2.80
2023-04-03T08:41:16.389Z,2.50
2023-04-03T08:42:17.385Z,2.40
2023-04-03T08:43:16.377Z,2.90
2023-04-03T08:44:16.357Z,2.50
2023-04-03T08:45:16.368Z,2.20
2023-04-03T08:46:16.465Z,2.80
2023-04-03T08:47:16.363Z,2.40
2023-04-03T08:48:16.432Z,2.30
2023-04-03T08:49:16.392Z,2.50
2023-04-03T08:50:16.320Z,2.20
2023-04-03T08:51:16.421Z,2.20
2023-04-03T08:52:16.321Z,2.70
2023-04-03T08:53:16.323Z,2.30
2023-04-03T08:54:16.316Z,2.00
2023-04-03T08:55:16.304Z,2.20
2023-04-03T08:56:16.986Z,2.60
2023-04-03T08:57:16.329Z,2.40
2023-04-03T08:58:16.295Z,2.30
2023-04-03T08:59:17.262Z,3.00
2023-04-03T09:00:16.311Z,2.10
2023-04-03T09:01:16.308Z,2.20
2023-04-03T09:02:16.233Z,2.00
2023-04-03T09:03:16.304Z,2.30
2023-04-03T09:04:17.083Z,2.20
2023-04-03T09:05:16.242Z,2.30
2023-04-03T09:06:16.283Z,2.10
2023-04-03T09:07:16.300Z,2.10
2023-04-03T09:08:16.225Z,2.00
2023-04-03T09:09:16.199Z,2.00
2023-04-03T09:10:16.182Z,2.00
2023-04-03T09:11:16.156Z,1.80
2023-04-03T09:12:17.194Z,1.90
2023-04-03T09:13:16.175Z,1.80
2023-04-03T09:14:16.181Z,1.90
2023-04-03T09:15:17.946Z,1.70
2023-04-03T09:16:16.234Z,1.90
2023-04-03T09:17:16.227Z,1.60
2023-04-03T09:18:16.177Z,1.60
2023-04-03T09:19:16.191Z,1.90
2023-04-03T09:20:17.181Z,1.80
2023-04-03T09:21:16.183Z,1.90
2023-04-03T09:22:16.122Z,1.80
2023-04-03T09:23:16.209Z,1.90
2023-04-03T09:24:16.130Z,1.80
2023-04-03T09:25:16.112Z,2.30
2023-04-03T09:26:16.175Z,1.90
2023-04-03T09:27:16.141Z,2.10
2023-04-03T09:28:16.077Z,1.80
2023-04-03T09:29:16.149Z,2.00
2023-04-03T09:30:16.099Z,2.30
2023-04-03T09:31:16.202Z,1.80
2023-04-03T09:32:16.095Z,2.10
2023-04-03T09:33:16.068Z,2.20
2023-04-03T09:34:16.073Z,2.30
2023-04-03T09:35:20.569Z,2.20
2023-04-03T09:36:18.052Z,1.90
2023-04-03T09:37:16.026Z,2.20
2023-04-03T09:38:15.998Z,1.80
2023-04-03T09:39:16.074Z,2.10
2023-04-03T09:40:16.036Z,2.00
2023-04-03T09:41:16.012Z,1.70
2023-04-03T09:42:15.980Z,2.10
2023-04-03T09:43:15.967Z,2.70
2023-04-03T09:44:16.002Z,2.00
2023-04-03T09:45:15.943Z,2.10
2023-04-03T09:46:15.986Z,1.90
2023-04-03T09:47:15.999Z,2.10
2023-04-03T09:48:16.785Z,1.90
2023-04-03T09:49:17.027Z,2.00
2023-04-03T09:50:15.923Z,1.80
2023-04-03T09:51:15.907Z,1.60
2023-04-03T09:52:15.905Z,2.10
2023-04-03T09:53:15.923Z,2.00
2023-04-03T09:54:15.946Z,1.70
2023-04-03T09:55:15.991Z,1.50
2023-04-03T09:56:15.910Z,1.80
2023-04-03T09:57:15.917Z,2.00
2023-04-03T09:58:15.912Z,2.50
2023-04-03T09:59:15.945Z,2.60
2023-04-03T10:00:15.919Z,8.50
2023-04-03T10:01:16.020Z,4.70
2023-04-03T10:02:16.534Z,2.90
2023-04-03T10:03:15.829Z,2.30
2023-04-03T10:04:15.955Z,2.20
2023-04-03T10:05:15.905Z,2.30
2023-04-03T10:06:15.837Z,2.30
2023-04-03T10:07:15.830Z,2.20
2023-04-03T10:08:15.828Z,2.10
2023-04-03T10:09:15.838Z,1.90
2023-04-03T10:10:15.935Z,2.10
2023-04-03T10:11:15.900Z,2.00
2023-04-03T10:12:15.853Z,1.80
2023-04-03T10:13:21.130Z,2.30
2023-04-03T10:14:17.806Z,2.20
2023-04-03T10:15:15.767Z,2.40
2023-04-03T10:16:15.784Z,1.90
2023-04-03T10:17:15.747Z,2.00
2023-04-03T10:18:24.450Z,2.10
2023-04-03T10:19:17.768Z,2.40
2023-04-03T10:20:15.764Z,1.80
2023-04-03T10:21:26.768Z,1.90
2023-04-03T10:22:17.709Z,1.80
2023-04-03T10:23:15.756Z,1.70
2023-04-03T10:24:15.753Z,2.00
2023-04-03T10:25:15.697Z,2.10
2023-04-03T10:26:15.697Z,2.10
2023-04-03T10:27:15.773Z,1.90
2023-04-03T10:28:15.713Z,2.30
2023-04-03T10:29:15.664Z,2.10
2023-04-03T10:30:15.784Z,3.10
2023-04-03T10:31:15.760Z,2.40
2023-04-03T10:32:15.651Z,2.70
2023-04-03T10:33:15.649Z,2.00
2023-04-03T10:34:15.634Z,2.10
2023-04-03T10:35:15.648Z,2.10
2023-04-03T10:36:15.633Z,1.90
2023-04-03T10:37:15.626Z,2.20
2023-04-03T10:38:15.612Z,2.00
2023-04-03T10:39:15.647Z,2.30
2023-04-03T10:40:15.762Z,2.00
2023-04-03T10:41:16.476Z,1.70
2023-04-03T10:42:17.894Z,1.50
2023-04-03T10:43:15.686Z,1.80
2023-04-03T10:44:15.687Z,2.00
2023-04-03T10:45:15.583Z,4.80
2023-04-03T10:46:15.650Z,1.60
2023-04-03T10:47:15.552Z,2.70
2023-04-03T10:48:15.612Z,2.30
2023-04-03T10:49:15.560Z,2.10
2023-04-03T10:50:15.655Z,2.30
2023-04-03T10:51:15.578Z,2.30
2023-04-03T10:52:15.542Z,1.90
2023-04-03T10:53:15.539Z,2.40
2023-04-03T10:54:15.514Z,1.80
2023-04-03T10:55:15.539Z,1.70
2023-04-03T10:56:15.562Z,1.70
2023-04-03T10:57:15.537Z,1.90
2023-04-03T10:58:15.695Z,2.60
2023-04-03T10:59:15.659Z,3.20
2023-04-03T11:00:15.490Z,2.00
2023-04-03T11:01:15.505Z,2.50
2023-04-03T11:02:15.556Z,2.00
2023-04-03T11:03:15.491Z,1.60
2023-04-03T11:04:15.480Z,1.60
2023-04-03T11:05:15.462Z,1.70
2023-04-03T11:06:15.429Z,1.80
2023-04-03T11:07:15.482Z,2.30
2023-04-03T11:08:15.419Z,2.00
2023-04-03T11:09:15.468Z,1.90
2023-04-03T11:10:15.921Z,2.20
2023-04-03T11:11:15.429Z,1.70
2023-04-03T11:12:15.433Z,1.60
2023-04-03T11:13:15.407Z,1.80
2023-04-03T11:14:15.397Z,2.00
2023-04-03T11:15:15.466Z,2.30
2023-04-03T11:16:15.424Z,2.00
2023-04-03T11:17:15.480Z,1.80
2023-04-03T11:18:15.379Z,1.60
2023-04-03T11:19:15.377Z,2.00
2023-04-03T11:20:15.370Z,2.10
2023-04-03T11:21:15.337Z,2.00
2023-04-03T11:22:15.360Z,1.80
2023-04-03T11:23:15.338Z,1.50
2023-04-03T11:24:15.332Z,1.80
2023-04-03T11:25:15.326Z,1.50
2023-04-03T11:26:15.310Z,1.70
2023-04-03T11:27:15.288Z,1.70
2023-04-03T11:28:15.283Z,1.80
2023-04-03T11:29:24.874Z,1.50
2023-04-03T11:30:17.266Z,1.80
2023-04-03T11:31:15.384Z,1.70
2023-04-03T11:32:15.258Z,1.70
2023-04-03T11:33:15.244Z,3.00
2023-04-03T11:34:15.296Z,2.10
2023-04-03T11:35:15.265Z,2.10
2023-04-03T11:36:25.020Z,3.20
2023-04-03T11:37:17.246Z,1.60
2023-04-03T11:38:15.229Z,2.70
2023-04-03T11:39:15.220Z,2.10
2023-04-03T11:40:15.302Z,1.70
2023-04-03T11:41:15.201Z,2.50
2023-04-03T11:42:15.233Z,1.80
2023-04-03T11:43:15.226Z,1.80
2023-04-03T11:44:15.209Z,1.70
2023-04-03T11:45:15.193Z,1.20
2023-04-03T11:46:15.212Z,1.50
2023-04-03T11:47:15.262Z,2.20
2023-04-03T11:48:24.481Z,1.90
2023-04-03T11:49:17.147Z,1.80
2023-04-03T11:50:15.203Z,1.60
2023-04-03T11:51:15.194Z,1.70
2023-04-03T11:52:15.196Z,1.90
2023-04-03T11:53:15.213Z,1.60
2023-04-03T11:54:15.226Z,4.60
2023-04-03T11:55:15.118Z,1.60
2023-04-03T11:56:15.146Z,2.20
2023-04-03T11:57:15.144Z,2.30
2023-04-03T11:58:15.117Z,2.10
2023-04-03T11:59:15.100Z,2.10
2023-04-03T12:00:15.094Z,1.90
2023-04-03T12:01:15.091Z,2.60
2023-04-03T12:02:15.160Z,2.30
2023-04-03T12:03:15.388Z,2.60
2023-04-03T12:04:15.284Z,2.30
2023-04-03T12:05:15.072Z,2.00
2023-04-03T12:06:15.031Z,2.00
2023-04-03T12:07:15.050Z,2.00
2023-04-03T12:08:15.048Z,2.00
2023-04-03T12:09:15.025Z,2.40
2023-04-03T12:10:21.400Z,2.10
2023-04-03T12:11:17.002Z,2.20
2023-04-03T12:12:15.032Z,2.20
2023-04-03T12:13:14.994Z,2.20
2023-04-03T12:14:15.003Z,2.10
2023-04-03T12:15:15.074Z,2.20
2023-04-03T12:16:14.972Z,2.10
2023-04-03T12:17:15.174Z,2.10
2023-04-03T12:18:14.972Z,2.10
2023-04-03T12:19:15.059Z,2.20
2023-04-03T12:20:14.964Z,2.30
2023-04-03T12:21:14.987Z,2.30
2023-04-03T12:22:14.998Z,2.20
2023-04-03T12:23:14.912Z,2.30
2023-04-03T12:24:14.948Z,2.10
2023-04-03T12:25:14.931Z,2.00
2023-04-03T12:26:14.933Z,2.20
2023-04-03T12:27:14.911Z,2.10
2023-04-03T12:28:14.889Z,1.90
2023-04-03T12:29:14.908Z,2.30
2023-04-03T12:30:14.894Z,2.10
2023-04-03T12:31:15.953Z,2.50
2023-04-03T12:32:14.917Z,2.10
2023-04-03T12:33:14.869Z,2.10
2023-04-03T12:34:14.907Z,2.20
2023-04-03T12:35:14.943Z,2.40
2023-04-03T12:36:14.929Z,2.20
2023-04-03T12:37:14.866Z,2.20
2023-04-03T12:38:14.858Z,2.10
2023-04-03T12:39:14.864Z,2.10
2023-04-03T12:40:14.840Z,2.40
2023-04-03T12:41:14.847Z,2.10
2023-04-03T12:42:14.829Z,2.10
2023-04-03T12:43:14.973Z,2.30
2023-04-03T12:44:16.442Z,2.20
2023-04-03T12:45:14.804Z,2.20
2023-04-03T12:46:14.870Z,2.10
2023-04-03T12:47:14.895Z,2.20
2023-04-03T12:48:14.794Z,2.30
2023-04-03T12:49:14.766Z,2.20
2023-04-03T12:50:14.758Z,2.50
2023-04-03T12:51:14.847Z,2.20
2023-04-03T12:52:14.722Z,2.50
2023-04-03T12:53:14.774Z,2.10
2023-04-03T12:54:14.749Z,2.30
2023-04-03T12:55:14.758Z,2.20
2023-04-03T12:56:14.712Z,2.20
2023-04-03T12:57:14.775Z,2.10
2023-04-03T12:58:14.711Z,2.50
2023-04-03T12:59:14.701Z,2.00
2023-04-03T13:00:14.709Z,2.10
2023-04-03T13:01:14.869Z,2.10
2023-04-03T13:02:14.707Z,2.10
2023-04-03T13:03:14.765Z,1.80
2023-04-03T13:04:14.804Z,2.00
2023-04-03T13:05:14.675Z,1.90
2023-04-03T13:06:14.660Z,2.20
2023-04-03T13:07:14.709Z,2.10
2023-04-03T13:08:14.641Z,1.90
2023-04-03T13:09:14.675Z,2.30
2023-04-03T13:10:14.622Z,2.40
2023-04-03T13:11:14.683Z,2.70
2023-04-03T13:12:14.611Z,2.80
2023-04-03T13:13:14.603Z,2.70